sensor_id;sensor_type;location;lat;lon;timestamp;P1;durP1;ratioP1;P2;durP2;ratioP2
2892;SDS011;1456;51.840;12.184;2023-02-28T00:01:20;4.30;;;4.27;;
2892;SDS011;1456;51.840;12.184;2023-02-28T00:03:46;3.50;;;3.50;;
2892;SDS011;1456;51.840;12.184;2023-02-28T00:06:12;3.53;;;3.53;;
2892;SDS011;1456;51.840;12.184;2023-02-28T00:08:38;4.17;;;4.17;;
2892;SDS011;1456;51.840;12.184;2023-02-28T00:11:05;4.50;;;4.40;;
2892;SDS011;1456;51.840;12.184;2023-02-28T00:13:36;3.97;;;3.97;;
2892;SDS011;1456;51.840;12.184;2023-02-28T00:16:07;4.10;;;4.10;;
2892;SDS011;1456;51.840;12.184;2023-02-28T00:18:34;3.90;;;3.90;;
2892;SDS011;1456;51.840;12.184;2023-02-28T00:21:00;3.90;;;3.90;;
2892;SDS011;1456;51.840;12.184;2023-02-28T00:23:26;3.80;;;3.80;;
2892;SDS011;1456;51.840;12.184;2023-02-28T00:25:53;3.77;;;3.77;;
2892;SDS011;1456;51.840;12.184;2023-02-28T00:28:19;3.90;;;3.90;;
2892;SDS011;1456;51.840;12.184;2023-02-28T00:30:44;4.57;;;4.57;;
2892;SDS011;1456;51.840;12.184;2023-02-28T00:33:10;5.17;;;5.07;;
2892;SDS011;1456;51.840;12.184;2023-02-28T00:35:40;4.10;;;4.10;;
2892;SDS011;1456;51.840;12.184;2023-02-28T00:38:05;3.90;;;3.90;;
2892;SDS011;1456;51.840;12.184;2023-02-28T00:40:31;4.40;;;4.40;;
2892;SDS011;1456;51.840;12.184;2023-02-28T00:42:58;4.77;;;4.73;;
2892;SDS011;1456;51.840;12.184;2023-02-28T00:45:23;4.00;;;4.00;;
2892;SDS011;1456;51.840;12.184;2023-02-28T00:47:50;4.10;;;4.10;;
2892;SDS011;1456;51.840;12.184;2023-02-28T00:50:20;3.93;;;3.93;;
2892;SDS011;1456;51.840;12.184;2023-02-28T00:52:46;3.70;;;3.70;;
2892;SDS011;1456;51.840;12.184;2023-02-28T00:55:15;3.93;;;3.93;;
2892;SDS011;1456;51.840;12.184;2023-02-28T00:57:41;3.60;;;3.60;;
2892;SDS011;1456;51.840;12.184;2023-02-28T01:00:07;3.40;;;3.40;;
2892;SDS011;1456;51.840;12.184;2023-02-28T01:02:33;3.90;;;3.90;;
2892;SDS011;1456;51.840;12.184;2023-02-28T01:04:59;3.80;;;3.80;;
2892;SDS011;1456;51.840;12.184;2023-02-28T01:07:25;3.70;;;3.70;;
2892;SDS011;1456;51.840;12.184;2023-02-28T01:09:51;3.80;;;3.80;;
2892;SDS011;1456;51.840;12.184;2023-02-28T01:12:17;3.30;;;3.30;;
2892;SDS011;1456;51.840;12.184;2023-02-28T01:14:43;3.60;;;3.60;;
2892;SDS011;1456;51.840;12.184;2023-02-28T01:17:09;3.70;;;3.70;;
2892;SDS011;1456;51.840;12.184;2023-02-28T01:19:34;3.70;;;3.70;;
2892;SDS011;1456;51.840;12.184;2023-02-28T01:22:04;3.50;;;3.50;;
2892;SDS011;1456;51.840;12.184;2023-02-28T01:24:31;4.00;;;3.90;;
2892;SDS011;1456;51.840;12.184;2023-02-28T01:26:58;5.60;;;5.50;;
2892;SDS011;1456;51.840;12.184;2023-02-28T01:29:24;3.53;;;3.53;;
2892;SDS011;1456;51.840;12.184;2023-02-28T01:31:50;3.40;;;3.40;;
2892;SDS011;1456;51.840;12.184;2023-02-28T01:34:17;2.80;;;2.80;;
2892;SDS011;1456;51.840;12.184;2023-02-28T01:36:44;4.13;;;4.03;;
2892;SDS011;1456;51.840;12.184;2023-02-28T01:39:10;3.40;;;3.40;;
2892;SDS011;1456;51.840;12.184;2023-02-28T01:41:37;3.37;;;3.37;;
2892;SDS011;1456;51.840;12.184;2023-02-28T01:44:05;3.83;;;3.77;;
2892;SDS011;1456;51.840;12.184;2023-02-28T01:46:50;2.83;;;2.83;;
2892;SDS011;1456;51.840;12.184;2023-02-28T01:49:16;3.03;;;3.03;;
2892;SDS011;1456;51.840;12.184;2023-02-28T01:54:27;3.97;;;3.97;;
2892;SDS011;1456;51.840;12.184;2023-02-28T01:56:57;3.97;;;3.97;;
2892;SDS011;1456;51.840;12.184;2023-02-28T01:59:39;3.60;;;3.60;;
2892;SDS011;1456;51.840;12.184;2023-02-28T02:02:12;3.47;;;3.47;;
2892;SDS011;1456;51.840;12.184;2023-02-28T02:05:02;3.50;;;3.50;;
2892;SDS011;1456;51.840;12.184;2023-02-28T02:07:32;2.90;;;2.90;;
2892;SDS011;1456;51.840;12.184;2023-02-28T02:24:04;3.03;;;3.03;;
2892;SDS011;1456;51.840;12.184;2023-02-28T02:40:17;3.00;;;3.00;;
2892;SDS011;1456;51.840;12.184;2023-02-28T02:45:44;2.90;;;2.90;;
2892;SDS011;1456;51.840;12.184;2023-02-28T02:48:18;2.80;;;2.80;;
2892;SDS011;1456;51.840;12.184;2023-02-28T02:50:50;2.60;;;2.60;;
2892;SDS011;1456;51.840;12.184;2023-02-28T02:53:23;2.93;;;2.93;;
2892;SDS011;1456;51.840;12.184;2023-02-28T02:55:54;7.10;;;6.67;;
2892;SDS011;1456;51.840;12.184;2023-02-28T02:58:22;4.50;;;4.23;;
2892;SDS011;1456;51.840;12.184;2023-02-28T03:00:55;3.33;;;3.33;;
2892;SDS011;1456;51.840;12.184;2023-02-28T03:03:24;3.00;;;3.00;;
2892;SDS011;1456;51.840;12.184;2023-02-28T03:06:00;3.53;;;3.43;;
2892;SDS011;1456;51.840;12.184;2023-02-28T03:08:26;2.30;;;2.30;;
2892;SDS011;1456;51.840;12.184;2023-02-28T03:10:58;1.97;;;1.97;;
2892;SDS011;1456;51.840;12.184;2023-02-28T03:18:38;3.90;;;3.67;;
2892;SDS011;1456;51.840;12.184;2023-02-28T03:23:48;2.07;;;2.07;;
2892;SDS011;1456;51.840;12.184;2023-02-28T03:26:33;2.37;;;2.33;;
2892;SDS011;1456;51.840;12.184;2023-02-28T03:29:19;1.77;;;1.77;;
2892;SDS011;1456;51.840;12.184;2023-02-28T03:34:42;1.67;;;1.67;;
2892;SDS011;1456;51.840;12.184;2023-02-28T03:37:18;2.27;;;2.27;;
2892;SDS011;1456;51.840;12.184;2023-02-28T03:39:49;1.70;;;1.70;;
2892;SDS011;1456;51.840;12.184;2023-02-28T03:42:31;1.70;;;1.70;;
2892;SDS011;1456;51.840;12.184;2023-02-28T03:45:02;1.47;;;1.47;;
2892;SDS011;1456;51.840;12.184;2023-02-28T03:50:07;1.60;;;1.60;;
2892;SDS011;1456;51.840;12.184;2023-02-28T03:52:47;1.60;;;1.60;;
2892;SDS011;1456;51.840;12.184;2023-02-28T03:55:54;4.20;;;1.87;;
2892;SDS011;1456;51.840;12.184;2023-02-28T04:01:35;1.10;;;1.10;;
2892;SDS011;1456;51.840;12.184;2023-02-28T04:04:07;1.20;;;1.20;;
2892;SDS011;1456;51.840;12.184;2023-02-28T04:06:35;1.10;;;1.10;;
2892;SDS011;1456;51.840;12.184;2023-02-28T04:09:01;1.70;;;1.70;;
2892;SDS011;1456;51.840;12.184;2023-02-28T04:14:10;1.27;;;1.27;;
2892;SDS011;1456;51.840;12.184;2023-02-28T04:16:43;1.10;;;1.10;;
2892;SDS011;1456;51.840;12.184;2023-02-28T04:19:10;1.00;;;1.00;;
2892;SDS011;1456;51.840;12.184;2023-02-28T04:21:39;1.53;;;1.53;;
2892;SDS011;1456;51.840;12.184;2023-02-28T04:24:10;1.83;;;1.83;;
2892;SDS011;1456;51.840;12.184;2023-02-28T04:26:39;1.20;;;1.20;;
2892;SDS011;1456;51.840;12.184;2023-02-28T04:29:08;1.40;;;1.40;;
2892;SDS011;1456;51.840;12.184;2023-02-28T04:31:35;2.33;;;2.20;;
2892;SDS011;1456;51.840;12.184;2023-02-28T04:34:01;1.00;;;1.00;;
2892;SDS011;1456;51.840;12.184;2023-02-28T04:36:27;5.83;;;4.00;;
2892;SDS011;1456;51.840;12.184;2023-02-28T04:38:53;1.10;;;1.10;;
2892;SDS011;1456;51.840;12.184;2023-02-28T04:41:19;2.40;;;2.40;;
2892;SDS011;1456;51.840;12.184;2023-02-28T04:43:47;0.80;;;0.80;;
2892;SDS011;1456;51.840;12.184;2023-02-28T04:46:13;3.63;;;3.33;;
2892;SDS011;1456;51.840;12.184;2023-02-28T04:48:43;1.83;;;1.83;;
2892;SDS011;1456;51.840;12.184;2023-02-28T04:51:10;1.30;;;1.30;;
2892;SDS011;1456;51.840;12.184;2023-02-28T04:53:39;0.90;;;0.90;;
2892;SDS011;1456;51.840;12.184;2023-02-28T04:56:06;0.60;;;0.60;;
2892;SDS011;1456;51.840;12.184;2023-02-28T04:58:33;1.53;;;1.53;;
2892;SDS011;1456;51.840;12.184;2023-02-28T05:01:03;0.60;;;0.60;;
2892;SDS011;1456;51.840;12.184;2023-02-28T05:03:41;0.80;;;0.80;;
2892;SDS011;1456;51.840;12.184;2023-02-28T05:06:08;0.50;;;0.50;;
2892;SDS011;1456;51.840;12.184;2023-02-28T05:08:35;0.70;;;0.70;;
2892;SDS011;1456;51.840;12.184;2023-02-28T05:11:01;0.47;;;0.47;;
2892;SDS011;1456;51.840;12.184;2023-02-28T05:13:29;0.50;;;0.50;;
2892;SDS011;1456;51.840;12.184;2023-02-28T05:15:55;0.50;;;0.50;;
2892;SDS011;1456;51.840;12.184;2023-02-28T05:18:21;0.57;;;0.57;;
2892;SDS011;1456;51.840;12.184;2023-02-28T05:20:48;0.70;;;0.70;;
2892;SDS011;1456;51.840;12.184;2023-02-28T05:23:18;0.50;;;0.50;;
2892;SDS011;1456;51.840;12.184;2023-02-28T05:25:47;0.40;;;0.40;;
2892;SDS011;1456;51.840;12.184;2023-02-28T05:28:13;0.50;;;0.50;;
2892;SDS011;1456;51.840;12.184;2023-02-28T05:30:42;0.63;;;0.63;;
2892;SDS011;1456;51.840;12.184;2023-02-28T05:33:10;0.50;;;0.50;;
2892;SDS011;1456;51.840;12.184;2023-02-28T05:35:39;0.40;;;0.40;;
2892;SDS011;1456;51.840;12.184;2023-02-28T05:38:06;0.40;;;0.40;;
2892;SDS011;1456;51.840;12.184;2023-02-28T05:40:32;0.40;;;0.40;;
2892;SDS011;1456;51.840;12.184;2023-02-28T05:42:59;0.77;;;0.77;;
2892;SDS011;1456;51.840;12.184;2023-02-28T05:45:26;0.40;;;0.40;;
2892;SDS011;1456;51.840;12.184;2023-02-28T05:47:53;0.40;;;0.40;;
2892;SDS011;1456;51.840;12.184;2023-02-28T05:50:19;0.40;;;0.40;;
2892;SDS011;1456;51.840;12.184;2023-02-28T05:52:49;0.40;;;0.40;;
2892;SDS011;1456;51.840;12.184;2023-02-28T05:55:15;0.40;;;0.40;;
2892;SDS011;1456;51.840;12.184;2023-02-28T05:57:42;1.00;;;1.00;;
2892;SDS011;1456;51.840;12.184;2023-02-28T06:00:09;0.97;;;0.97;;
2892;SDS011;1456;51.840;12.184;2023-02-28T06:02:35;1.33;;;1.33;;
2892;SDS011;1456;51.840;12.184;2023-02-28T06:05:02;0.30;;;0.30;;
2892;SDS011;1456;51.840;12.184;2023-02-28T06:07:27;0.30;;;0.30;;
2892;SDS011;1456;51.840;12.184;2023-02-28T06:09:53;0.30;;;0.30;;
2892;SDS011;1456;51.840;12.184;2023-02-28T06:12:20;0.30;;;0.30;;
2892;SDS011;1456;51.840;12.184;2023-02-28T06:14:45;0.30;;;0.30;;
2892;SDS011;1456;51.840;12.184;2023-02-28T06:17:17;0.30;;;0.30;;
2892;SDS011;1456;51.840;12.184;2023-02-28T06:19:43;1.10;;;1.10;;
2892;SDS011;1456;51.840;12.184;2023-02-28T06:22:09;0.50;;;0.50;;
2892;SDS011;1456;51.840;12.184;2023-02-28T06:24:35;0.70;;;0.70;;
2892;SDS011;1456;51.840;12.184;2023-02-28T06:27:03;0.40;;;0.40;;
2892;SDS011;1456;51.840;12.184;2023-02-28T06:29:30;0.37;;;0.37;;
2892;SDS011;1456;51.840;12.184;2023-02-28T06:31:56;0.40;;;0.40;;
2892;SDS011;1456;51.840;12.184;2023-02-28T06:34:22;0.40;;;0.40;;
2892;SDS011;1456;51.840;12.184;2023-02-28T06:36:49;0.30;;;0.30;;
2892;SDS011;1456;51.840;12.184;2023-02-28T06:39:16;0.30;;;0.30;;
2892;SDS011;1456;51.840;12.184;2023-02-28T06:41:43;0.40;;;0.40;;
2892;SDS011;1456;51.840;12.184;2023-02-28T06:44:20;0.50;;;0.50;;
2892;SDS011;1456;51.840;12.184;2023-02-28T06:46:47;0.67;;;0.67;;
2892;SDS011;1456;51.840;12.184;2023-02-28T06:49:13;0.30;;;0.30;;
2892;SDS011;1456;51.840;12.184;2023-02-28T06:51:41;0.40;;;0.40;;
2892;SDS011;1456;51.840;12.184;2023-02-28T06:54:10;0.33;;;0.33;;
2892;SDS011;1456;51.840;12.184;2023-02-28T06:56:36;6.33;;;0.70;;
2892;SDS011;1456;51.840;12.184;2023-02-28T06:59:02;2.20;;;2.00;;
2892;SDS011;1456;51.840;12.184;2023-02-28T07:01:29;4.00;;;2.63;;
2892;SDS011;1456;51.840;12.184;2023-02-28T07:03:56;3.17;;;2.97;;
2892;SDS011;1456;51.840;12.184;2023-02-28T07:06:22;3.03;;;1.50;;
2892;SDS011;1456;51.840;12.184;2023-02-28T07:08:49;0.50;;;0.50;;
2892;SDS011;1456;51.840;12.184;2023-02-28T07:11:17;0.47;;;0.47;;
2892;SDS011;1456;51.840;12.184;2023-02-28T07:13:42;0.40;;;0.40;;
2892;SDS011;1456;51.840;12.184;2023-02-28T07:16:09;0.40;;;0.40;;
2892;SDS011;1456;51.840;12.184;2023-02-28T07:18:36;0.40;;;0.40;;
2892;SDS011;1456;51.840;12.184;2023-02-28T07:21:03;0.40;;;0.40;;
2892;SDS011;1456;51.840;12.184;2023-02-28T07:23:34;1.43;;;1.43;;
2892;SDS011;1456;51.840;12.184;2023-02-28T07:26:01;0.40;;;0.40;;
2892;SDS011;1456;51.840;12.184;2023-02-28T07:28:27;0.67;;;0.67;;
2892;SDS011;1456;51.840;12.184;2023-02-28T07:30:52;0.57;;;0.57;;
2892;SDS011;1456;51.840;12.184;2023-02-28T07:33:18;0.50;;;0.50;;
2892;SDS011;1456;51.840;12.184;2023-02-28T07:35:44;0.60;;;0.60;;
2892;SDS011;1456;51.840;12.184;2023-02-28T07:38:09;0.60;;;0.60;;
2892;SDS011;1456;51.840;12.184;2023-02-28T07:40:36;0.70;;;0.70;;
2892;SDS011;1456;51.840;12.184;2023-02-28T07:43:03;0.80;;;0.80;;
2892;SDS011;1456;51.840;12.184;2023-02-28T07:45:30;1.00;;;1.00;;
2892;SDS011;1456;51.840;12.184;2023-02-28T07:48:00;1.10;;;1.10;;
2892;SDS011;1456;51.840;12.184;2023-02-28T07:50:26;3.10;;;3.00;;
2892;SDS011;1456;51.840;12.184;2023-02-28T07:52:55;2.07;;;2.07;;
2892;SDS011;1456;51.840;12.184;2023-02-28T07:55:22;1.90;;;1.90;;
2892;SDS011;1456;51.840;12.184;2023-02-28T07:57:48;1.90;;;1.90;;
2892;SDS011;1456;51.840;12.184;2023-02-28T08:00:14;2.90;;;2.90;;
2892;SDS011;1456;51.840;12.184;2023-02-28T08:02:40;5.37;;;5.00;;
2892;SDS011;1456;51.840;12.184;2023-02-28T08:05:06;3.30;;;3.30;;
2892;SDS011;1456;51.840;12.184;2023-02-28T08:07:32;3.97;;;3.87;;
2892;SDS011;1456;51.840;12.184;2023-02-28T08:09:59;3.93;;;3.93;;
2892;SDS011;1456;51.840;12.184;2023-02-28T08:12:25;4.13;;;4.10;;
2892;SDS011;1456;51.840;12.184;2023-02-28T08:14:51;4.10;;;4.10;;
2892;SDS011;1456;51.840;12.184;2023-02-28T08:17:18;4.00;;;4.00;;
2892;SDS011;1456;51.840;12.184;2023-02-28T08:19:45;4.90;;;4.90;;
2892;SDS011;1456;51.840;12.184;2023-02-28T08:22:11;5.10;;;5.10;;
2892;SDS011;1456;51.840;12.184;2023-02-28T08:24:41;5.00;;;4.90;;
2892;SDS011;1456;51.840;12.184;2023-02-28T08:27:07;4.30;;;4.30;;
2892;SDS011;1456;51.840;12.184;2023-02-28T08:29:36;3.83;;;3.83;;
2892;SDS011;1456;51.840;12.184;2023-02-28T08:32:03;4.20;;;4.20;;
2892;SDS011;1456;51.840;12.184;2023-02-28T08:34:29;4.00;;;4.00;;
2892;SDS011;1456;51.840;12.184;2023-02-28T08:36:55;4.93;;;4.93;;
2892;SDS011;1456;51.840;12.184;2023-02-28T08:39:21;5.30;;;5.30;;
2892;SDS011;1456;51.840;12.184;2023-02-28T08:41:47;4.90;;;4.90;;
2892;SDS011;1456;51.840;12.184;2023-02-28T08:44:13;5.60;;;5.60;;
2892;SDS011;1456;51.840;12.184;2023-02-28T08:46:39;6.43;;;6.43;;
2892;SDS011;1456;51.840;12.184;2023-02-28T08:49:05;7.23;;;7.13;;
2892;SDS011;1456;51.840;12.184;2023-02-28T08:51:32;7.97;;;7.77;;
2892;SDS011;1456;51.840;12.184;2023-02-28T08:53:58;7.60;;;7.50;;
2892;SDS011;1456;51.840;12.184;2023-02-28T08:56:26;8.20;;;7.80;;
2892;SDS011;1456;51.840;12.184;2023-02-28T08:58:54;7.63;;;7.53;;
2892;SDS011;1456;51.840;12.184;2023-02-28T09:01:22;7.43;;;7.33;;
2892;SDS011;1456;51.840;12.184;2023-02-28T09:03:52;6.93;;;6.83;;
2892;SDS011;1456;51.840;12.184;2023-02-28T09:06:20;6.87;;;6.77;;
2892;SDS011;1456;51.840;12.184;2023-02-28T09:08:47;7.20;;;7.10;;
2892;SDS011;1456;51.840;12.184;2023-02-28T09:11:13;7.23;;;7.13;;
2892;SDS011;1456;51.840;12.184;2023-02-28T09:13:40;7.63;;;7.53;;
2892;SDS011;1456;51.840;12.184;2023-02-28T09:16:07;6.47;;;6.47;;
2892;SDS011;1456;51.840;12.184;2023-02-28T09:18:35;8.17;;;7.90;;
2892;SDS011;1456;51.840;12.184;2023-02-28T09:21:10;7.20;;;7.10;;
2892;SDS011;1456;51.840;12.184;2023-02-28T09:23:42;7.93;;;7.83;;
2892;SDS011;1456;51.840;12.184;2023-02-28T09:26:13;8.00;;;7.90;;
2892;SDS011;1456;51.840;12.184;2023-02-28T09:28:41;8.10;;;8.00;;
2892;SDS011;1456;51.840;12.184;2023-02-28T09:31:10;7.73;;;7.63;;
2892;SDS011;1456;51.840;12.184;2023-02-28T09:33:43;8.00;;;7.90;;
2892;SDS011;1456;51.840;12.184;2023-02-28T09:36:10;9.30;;;9.20;;
2892;SDS011;1456;51.840;12.184;2023-02-28T09:38:35;9.07;;;8.97;;
2892;SDS011;1456;51.840;12.184;2023-02-28T09:41:02;8.87;;;8.77;;
2892;SDS011;1456;51.840;12.184;2023-02-28T09:43:37;10.80;;;10.60;;
2892;SDS011;1456;51.840;12.184;2023-02-28T09:46:12;10.50;;;10.30;;
2892;SDS011;1456;51.840;12.184;2023-02-28T09:48:41;9.83;;;9.73;;
2892;SDS011;1456;51.840;12.184;2023-02-28T09:54:09;9.70;;;9.60;;
2892;SDS011;1456;51.840;12.184;2023-02-28T09:56:43;9.80;;;9.70;;
2892;SDS011;1456;51.840;12.184;2023-02-28T09:59:36;12.17;;;11.87;;
2892;SDS011;1456;51.840;12.184;2023-02-28T10:02:17;9.70;;;9.60;;
2892;SDS011;1456;51.840;12.184;2023-02-28T10:07:29;10.00;;;9.90;;
2892;SDS011;1456;51.840;12.184;2023-02-28T10:10:26;9.57;;;9.47;;
2892;SDS011;1456;51.840;12.184;2023-02-28T10:15:58;12.67;;;12.37;;
2892;SDS011;1456;51.840;12.184;2023-02-28T10:21:20;10.93;;;10.73;;
2892;SDS011;1456;51.840;12.184;2023-02-28T10:23:49;10.80;;;10.70;;
2892;SDS011;1456;51.840;12.184;2023-02-28T10:26:24;12.37;;;11.57;;
2892;SDS011;1456;51.840;12.184;2023-02-28T10:28:53;9.93;;;9.83;;
2892;SDS011;1456;51.840;12.184;2023-02-28T10:31:19;10.37;;;10.27;;
2892;SDS011;1456;51.840;12.184;2023-02-28T10:33:47;10.87;;;10.67;;
2892;SDS011;1456;51.840;12.184;2023-02-28T10:36:18;10.23;;;10.03;;
2892;SDS011;1456;51.840;12.184;2023-02-28T10:38:46;10.47;;;10.37;;
2892;SDS011;1456;51.840;12.184;2023-02-28T10:41:13;12.13;;;11.83;;
2892;SDS011;1456;51.840;12.184;2023-02-28T10:43:44;12.27;;;11.87;;
2892;SDS011;1456;51.840;12.184;2023-02-28T10:48:39;10.20;;;10.10;;
2892;SDS011;1456;51.840;12.184;2023-02-28T10:51:08;11.10;;;10.90;;
2892;SDS011;1456;51.840;12.184;2023-02-28T10:53:45;11.70;;;11.50;;
2892;SDS011;1456;51.840;12.184;2023-02-28T10:56:17;11.63;;;11.43;;
2892;SDS011;1456;51.840;12.184;2023-02-28T11:01:37;11.93;;;11.73;;
2892;SDS011;1456;51.840;12.184;2023-02-28T11:04:39;19.43;;;12.20;;
2892;SDS011;1456;51.840;12.184;2023-02-28T11:07:10;13.80;;;13.50;;
2892;SDS011;1456;51.840;12.184;2023-02-28T11:09:49;11.50;;;11.30;;
2892;SDS011;1456;51.840;12.184;2023-02-28T11:12:28;11.67;;;11.47;;
2892;SDS011;1456;51.840;12.184;2023-02-28T11:15:02;10.80;;;10.70;;
2892;SDS011;1456;51.840;12.184;2023-02-28T11:17:31;12.23;;;11.93;;
2892;SDS011;1456;51.840;12.184;2023-02-28T11:20:00;11.97;;;11.77;;
2892;SDS011;1456;51.840;12.184;2023-02-28T11:22:31;11.50;;;11.30;;
2892;SDS011;1456;51.840;12.184;2023-02-28T11:25:06;12.07;;;11.87;;
2892;SDS011;1456;51.840;12.184;2023-02-28T11:30:31;19.83;;;19.30;;
2892;SDS011;1456;51.840;12.184;2023-02-28T11:36:30;19.83;;;19.23;;
2892;SDS011;1456;51.840;12.184;2023-02-28T11:39:00;19.40;;;18.90;;
2892;SDS011;1456;51.840;12.184;2023-02-28T11:49:30;21.83;;;21.23;;
2892;SDS011;1456;51.840;12.184;2023-02-28T12:05:50;19.47;;;18.93;;
2892;SDS011;1456;51.840;12.184;2023-02-28T12:17:04;18.30;;;17.80;;
2892;SDS011;1456;51.840;12.184;2023-02-28T12:28:34;19.47;;;18.97;;
2892;SDS011;1456;51.840;12.184;2023-02-28T12:31:12;19.17;;;18.67;;
2892;SDS011;1456;51.840;12.184;2023-02-28T12:33:51;18.93;;;18.30;;
2892;SDS011;1456;51.840;12.184;2023-02-28T12:36:29;20.40;;;19.80;;
2892;SDS011;1456;51.840;12.184;2023-02-28T12:39:06;19.00;;;18.60;;
2892;SDS011;1456;51.840;12.184;2023-02-28T12:41:54;19.10;;;18.60;;
2892;SDS011;1456;51.840;12.184;2023-02-28T12:44:35;21.03;;;20.43;;
2892;SDS011;1456;51.840;12.184;2023-02-28T12:47:10;19.97;;;19.47;;
2892;SDS011;1456;51.840;12.184;2023-02-28T12:49:49;13.00;;;12.70;;
2892;SDS011;1456;51.840;12.184;2023-02-28T12:52:20;26.47;;;25.77;;
2892;SDS011;1456;51.840;12.184;2023-02-28T12:55:13;25.87;;;25.10;;
2892;SDS011;1456;51.840;12.184;2023-02-28T13:00:21;27.30;;;26.50;;
2892;SDS011;1456;51.840;12.184;2023-02-28T13:11:24;22.50;;;21.80;;
2892;SDS011;1456;51.840;12.184;2023-02-28T13:13:58;21.37;;;20.77;;
2892;SDS011;1456;51.840;12.184;2023-02-28T13:16:26;21.97;;;21.43;;
2892;SDS011;1456;51.840;12.184;2023-02-28T13:18:52;22.33;;;21.73;;
2892;SDS011;1456;51.840;12.184;2023-02-28T13:21:41;25.30;;;24.60;;
2892;SDS011;1456;51.840;12.184;2023-02-28T13:24:09;21.63;;;21.13;;
2892;SDS011;1456;51.840;12.184;2023-02-28T13:34:39;19.60;;;18.80;;
2892;SDS011;1456;51.840;12.184;2023-02-28T13:42:30;21.03;;;20.53;;
2892;SDS011;1456;51.840;12.184;2023-02-28T13:47:28;23.47;;;21.63;;
2892;SDS011;1456;51.840;12.184;2023-02-28T14:06:32;25.80;;;25.10;;
2892;SDS011;1456;51.840;12.184;2023-02-28T14:14:00;24.93;;;24.23;;
2892;SDS011;1456;51.840;12.184;2023-02-28T14:16:34;24.30;;;23.70;;
2892;SDS011;1456;51.840;12.184;2023-02-28T14:19:22;23.80;;;23.20;;
2892;SDS011;1456;51.840;12.184;2023-02-28T14:37:51;26.07;;;25.27;;
2892;SDS011;1456;51.840;12.184;2023-02-28T14:42:57;24.90;;;24.30;;
2892;SDS011;1456;51.840;12.184;2023-02-28T14:45:30;15.10;;;14.73;;
2892;SDS011;1456;51.840;12.184;2023-02-28T14:47:58;17.87;;;16.80;;
2892;SDS011;1456;51.840;12.184;2023-02-28T14:50:32;27.43;;;26.63;;
2892;SDS011;1456;51.840;12.184;2023-02-28T14:53:02;28.43;;;27.70;;
2892;SDS011;1456;51.840;12.184;2023-02-28T14:55:34;25.27;;;24.47;;
2892;SDS011;1456;51.840;12.184;2023-02-28T14:58:02;24.57;;;23.80;;
2892;SDS011;1456;51.840;12.184;2023-02-28T15:00:32;23.70;;;23.10;;
2892;SDS011;1456;51.840;12.184;2023-02-28T15:03:01;25.90;;;25.07;;
2892;SDS011;1456;51.840;12.184;2023-02-28T15:05:47;28.63;;;27.40;;
2892;SDS011;1456;51.840;12.184;2023-02-28T15:08:19;24.27;;;23.67;;
2892;SDS011;1456;51.840;12.184;2023-02-28T15:11:08;12.97;;;12.67;;
2892;SDS011;1456;51.840;12.184;2023-02-28T15:13:42;12.73;;;12.43;;
2892;SDS011;1456;51.840;12.184;2023-02-28T15:16:20;12.60;;;12.40;;
2892;SDS011;1456;51.840;12.184;2023-02-28T15:19:00;24.10;;;23.50;;
2892;SDS011;1456;51.840;12.184;2023-02-28T15:21:36;24.00;;;23.40;;
2892;SDS011;1456;51.840;12.184;2023-02-28T15:26:39;27.17;;;26.47;;
2892;SDS011;1456;51.840;12.184;2023-02-28T15:29:17;26.63;;;25.93;;
2892;SDS011;1456;51.840;12.184;2023-02-28T15:31:50;26.20;;;25.50;;
2892;SDS011;1456;51.840;12.184;2023-02-28T15:34:21;24.90;;;24.20;;
2892;SDS011;1456;51.840;12.184;2023-02-28T15:36:51;23.70;;;23.00;;
2892;SDS011;1456;51.840;12.184;2023-02-28T15:39:21;24.07;;;23.37;;
2892;SDS011;1456;51.840;12.184;2023-02-28T15:41:49;23.47;;;22.87;;
2892;SDS011;1456;51.840;12.184;2023-02-28T15:44:28;12.53;;;12.23;;
2892;SDS011;1456;51.840;12.184;2023-02-28T15:47:02;13.23;;;12.93;;
2892;SDS011;1456;51.840;12.184;2023-02-28T15:49:33;12.03;;;11.73;;
2892;SDS011;1456;51.840;12.184;2023-02-28T15:52:15;10.70;;;10.50;;
2892;SDS011;1456;51.840;12.184;2023-02-28T15:54:44;11.20;;;11.00;;
2892;SDS011;1456;51.840;12.184;2023-02-28T15:57:19;11.80;;;11.40;;
2892;SDS011;1456;51.840;12.184;2023-02-28T15:59:54;10.67;;;10.50;;
2892;SDS011;1456;51.840;12.184;2023-02-28T16:02:36;11.23;;;11.03;;
2892;SDS011;1456;51.840;12.184;2023-02-28T16:07:31;11.10;;;10.90;;
2892;SDS011;1456;51.840;12.184;2023-02-28T16:09:58;10.87;;;10.67;;
2892;SDS011;1456;51.840;12.184;2023-02-28T16:12:26;10.50;;;10.30;;
2892;SDS011;1456;51.840;12.184;2023-02-28T16:14:55;12.00;;;10.10;;
2892;SDS011;1456;51.840;12.184;2023-02-28T16:17:24;9.97;;;9.87;;
2892;SDS011;1456;51.840;12.184;2023-02-28T16:19:51;9.60;;;9.50;;
2892;SDS011;1456;51.840;12.184;2023-02-28T16:22:18;12.37;;;11.97;;
2892;SDS011;1456;51.840;12.184;2023-02-28T16:24:44;10.30;;;10.20;;
2892;SDS011;1456;51.840;12.184;2023-02-28T16:30:00;12.17;;;11.97;;
2892;SDS011;1456;51.840;12.184;2023-02-28T16:32:26;21.80;;;21.30;;
2892;SDS011;1456;51.840;12.184;2023-02-28T16:34:52;21.67;;;21.17;;
2892;SDS011;1456;51.840;12.184;2023-02-28T16:37:18;22.23;;;21.70;;
2892;SDS011;1456;51.840;12.184;2023-02-28T16:39:44;19.17;;;18.77;;
2892;SDS011;1456;51.840;12.184;2023-02-28T16:42:12;18.80;;;18.40;;
2892;SDS011;1456;51.840;12.184;2023-02-28T16:44:52;19.70;;;19.30;;
2892;SDS011;1456;51.840;12.184;2023-02-28T16:47:19;19.23;;;18.53;;
2892;SDS011;1456;51.840;12.184;2023-02-28T16:49:45;22.80;;;22.10;;
2892;SDS011;1456;51.840;12.184;2023-02-28T16:52:12;21.43;;;20.93;;
2892;SDS011;1456;51.840;12.184;2023-02-28T16:54:39;28.20;;;27.13;;
2892;SDS011;1456;51.840;12.184;2023-02-28T16:57:06;27.10;;;25.93;;
2892;SDS011;1456;51.840;12.184;2023-02-28T16:59:47;26.60;;;25.60;;
2892;SDS011;1456;51.840;12.184;2023-02-28T17:02:14;24.80;;;23.97;;
2892;SDS011;1456;51.840;12.184;2023-02-28T17:04:43;28.37;;;27.30;;
2892;SDS011;1456;51.840;12.184;2023-02-28T17:07:10;25.30;;;24.50;;
2892;SDS011;1456;51.840;12.184;2023-02-28T17:09:38;29.33;;;28.30;;
2892;SDS011;1456;51.840;12.184;2023-02-28T17:12:04;27.70;;;26.33;;
2892;SDS011;1456;51.840;12.184;2023-02-28T17:14:30;24.97;;;23.93;;
2892;SDS011;1456;51.840;12.184;2023-02-28T17:16:59;25.13;;;24.17;;
2892;SDS011;1456;51.840;12.184;2023-02-28T17:19:26;22.80;;;22.20;;
2892;SDS011;1456;51.840;12.184;2023-02-28T17:21:53;21.30;;;20.80;;
2892;SDS011;1456;51.840;12.184;2023-02-28T17:24:18;23.90;;;23.10;;
2892;SDS011;1456;51.840;12.184;2023-02-28T17:29:18;20.90;;;20.33;;
2892;SDS011;1456;51.840;12.184;2023-02-28T17:31:45;25.10;;;24.50;;
2892;SDS011;1456;51.840;12.184;2023-02-28T17:34:11;22.20;;;21.60;;
2892;SDS011;1456;51.840;12.184;2023-02-28T17:36:43;23.97;;;23.30;;
2892;SDS011;1456;51.840;12.184;2023-02-28T17:39:10;21.03;;;20.53;;
2892;SDS011;1456;51.840;12.184;2023-02-28T17:41:44;20.50;;;20.00;;
2892;SDS011;1456;51.840;12.184;2023-02-28T17:44:10;20.77;;;20.27;;
2892;SDS011;1456;51.840;12.184;2023-02-28T17:46:37;17.67;;;17.27;;
2892;SDS011;1456;51.840;12.184;2023-02-28T17:49:10;23.50;;;22.83;;
2892;SDS011;1456;51.840;12.184;2023-02-28T17:51:35;23.60;;;23.00;;
2892;SDS011;1456;51.840;12.184;2023-02-28T17:54:02;24.80;;;24.10;;
2892;SDS011;1456;51.840;12.184;2023-02-28T17:56:28;23.53;;;23.00;;
2892;SDS011;1456;51.840;12.184;2023-02-28T17:58:54;14.43;;;13.00;;
2892;SDS011;1456;51.840;12.184;2023-02-28T18:01:21;12.63;;;11.40;;
2892;SDS011;1456;51.840;12.184;2023-02-28T18:03:49;8.50;;;8.40;;
2892;SDS011;1456;51.840;12.184;2023-02-28T18:06:36;9.73;;;8.97;;
2892;SDS011;1456;51.840;12.184;2023-02-28T18:09:16;11.87;;;11.50;;
2892;SDS011;1456;51.840;12.184;2023-02-28T18:11:48;7.20;;;7.10;;
2892;SDS011;1456;51.840;12.184;2023-02-28T18:14:15;9.37;;;9.27;;
2892;SDS011;1456;51.840;12.184;2023-02-28T18:16:42;13.23;;;12.13;;
2892;SDS011;1456;51.840;12.184;2023-02-28T18:19:08;11.27;;;10.77;;